createdAt,value
2023-02-11T00:01:26.377Z,1.95
2023-02-11T00:03:53.522Z,1.71
2023-02-11T00:06:20.453Z,2.12
2023-02-11T00:08:49.684Z,2.06
2023-02-11T00:11:18.634Z,1.92
2023-02-11T00:13:46.607Z,1.92
2023-02-11T00:16:19.687Z,1.68
2023-02-11T00:18:53.150Z,1.03
2023-02-11T00:21:26.311Z,1.10
2023-02-11T00:23:57.321Z,0.94
2023-02-11T00:26:31.744Z,1.68
2023-02-11T00:29:01.625Z,1.62
2023-02-11T00:31:34.057Z,0.74
2023-02-11T00:34:08.673Z,1.81
2023-02-11T00:36:38.469Z,1.14
2023-02-11T00:39:25.328Z,1.85
2023-02-11T00:42:01.565Z,1.53
2023-02-11T00:44:30.828Z,1.96
2023-02-11T00:47:05.315Z,1.15
2023-02-11T00:49:34.474Z,0.90
2023-02-11T00:52:01.281Z,1.60
2023-02-11T00:54:30.392Z,1.35
2023-02-11T00:56:57.103Z,1.70
2023-02-11T00:59:27.652Z,1.35
2023-02-11T01:02:04.703Z,1.30
2023-02-11T01:04:34.250Z,1.84
2023-02-11T01:07:01.061Z,1.21
2023-02-11T01:09:27.854Z,1.49
2023-02-11T01:11:57.130Z,1.71
2023-02-11T01:14:23.928Z,1.31
2023-02-11T01:16:53.902Z,1.78
2023-02-11T01:19:21.370Z,1.42
2023-02-11T01:21:50.480Z,1.21
2023-02-11T01:24:19.506Z,1.66
2023-02-11T01:26:48.817Z,1.30
2023-02-11T01:29:17.948Z,1.49
2023-02-11T01:31:47.137Z,1.81
2023-02-11T01:34:14.660Z,1.02
2023-02-11T01:36:41.897Z,1.23
2023-02-11T01:39:09.007Z,1.10
2023-02-11T01:41:35.846Z,1.28
2023-02-11T01:44:33.464Z,1.42
2023-02-11T01:47:06.130Z,1.16
2023-02-11T01:49:36.876Z,1.22
2023-02-11T01:52:10.477Z,1.64
2023-02-11T01:55:00.445Z,1.23
2023-02-11T01:57:32.038Z,0.91
2023-02-11T02:00:17.310Z,0.83
2023-02-11T02:02:44.437Z,1.53
2023-02-11T02:05:40.335Z,1.05
2023-02-11T02:08:21.634Z,0.78
2023-02-11T02:10:56.347Z,1.22
2023-02-11T02:13:25.068Z,1.45
2023-02-11T02:15:59.919Z,1.40
2023-02-11T02:18:51.873Z,1.46
2023-02-11T02:21:55.670Z,1.48
2023-02-11T02:24:41.223Z,1.42
2023-02-11T02:27:36.449Z,1.45
2023-02-11T02:30:28.231Z,1.45
2023-02-11T02:33:07.899Z,1.43
2023-02-11T02:35:55.714Z,1.41
2023-02-11T02:38:31.936Z,1.26
2023-02-11T02:41:20.047Z,0.61
2023-02-11T02:43:53.009Z,1.36
2023-02-11T02:46:29.999Z,0.80
2023-02-11T02:49:00.022Z,0.74
2023-02-11T02:51:51.537Z,1.18
2023-02-11T02:54:21.389Z,1.19
2023-02-11T02:57:05.370Z,0.55
2023-02-11T02:59:52.807Z,1.16
2023-02-11T03:02:35.695Z,0.39
2023-02-11T03:05:17.524Z,1.17
2023-02-11T03:07:51.649Z,0.53
2023-02-11T03:10:27.918Z,0.17
2023-02-11T03:12:57.662Z,1.04
2023-02-11T03:15:28.571Z,0.07
2023-02-11T03:18:00.744Z,0.35
2023-02-11T03:20:27.406Z,0.96
2023-02-11T03:23:02.596Z,0.17
2023-02-11T03:25:37.532Z,0.24
2023-02-11T03:28:25.183Z,0.40
2023-02-11T03:31:01.268Z,0.85
2023-02-11T03:33:45.976Z,0.75
2023-02-11T03:36:20.248Z,0.68
2023-02-11T03:38:52.993Z,-0.04
2023-02-11T03:41:22.249Z,0.77
2023-02-11T03:43:56.524Z,0.76
2023-02-11T03:46:34.702Z,-0.25
2023-02-11T03:49:15.800Z,0.44
2023-02-11T03:51:43.333Z,-0.05
2023-02-11T03:54:17.172Z,0.17
2023-02-11T03:56:51.668Z,0.80
2023-02-11T03:59:18.657Z,0.77
2023-02-11T04:01:45.452Z,0.16
2023-02-11T04:04:12.249Z,0.21
2023-02-11T04:06:41.594Z,-0.10
2023-02-11T04:09:10.832Z,0.06
2023-02-11T04:11:37.574Z,0.38
2023-02-11T04:14:06.782Z,0.59
2023-02-11T04:16:33.600Z,0.77
2023-02-11T04:19:02.746Z,-0.13
2023-02-11T04:21:31.990Z,0.35
2023-02-11T04:24:06.782Z,0.61
2023-02-11T04:26:36.599Z,0.13
2023-02-11T04:29:03.551Z,-0.02
2023-02-11T04:31:35.115Z,-0.15
2023-02-11T04:34:05.930Z,0.28
2023-02-11T04:36:32.816Z,0.25
2023-02-11T04:39:02.173Z,0.14
2023-02-11T04:41:31.048Z,0.76
2023-02-11T04:44:00.387Z,-0.03
2023-02-11T04:46:30.109Z,0.04
2023-02-11T04:49:05.051Z,0.79
2023-02-11T04:51:34.423Z,0.29
2023-02-11T04:54:01.224Z,0.39
2023-02-11T04:56:28.065Z,0.13
2023-02-11T04:58:57.006Z,0.56
2023-02-11T05:01:26.488Z,-0.66
2023-02-11T05:03:53.432Z,-0.07
2023-02-11T05:06:22.675Z,-0.11
2023-02-11T05:08:54.542Z,0.03
2023-02-11T05:11:26.812Z,-0.02
2023-02-11T05:14:01.585Z,0.22
2023-02-11T05:16:28.576Z,-0.91
2023-02-11T05:19:03.236Z,-0.39
2023-02-11T05:21:32.564Z,-1.23
2023-02-11T05:24:04.384Z,0.23
2023-02-11T05:26:36.564Z,0.42
2023-02-11T05:29:08.477Z,0.08
2023-02-11T05:31:40.494Z,-0.11
2023-02-11T05:34:13.118Z,-0.18
2023-02-11T05:36:44.976Z,-0.83
2023-02-11T05:39:12.273Z,-0.91
2023-02-11T05:41:39.107Z,0.33
2023-02-11T05:44:08.221Z,0.49
2023-02-11T05:46:35.038Z,-0.08
2023-02-11T05:49:08.969Z,0.29
2023-02-11T05:51:38.150Z,-0.43
2023-02-11T05:54:07.998Z,0.45
2023-02-11T05:56:38.059Z,-0.32
2023-02-11T05:59:12.385Z,0.02
2023-02-11T06:01:39.267Z,0.07
2023-02-11T06:04:08.981Z,0.58
2023-02-11T06:06:45.421Z,0.29
2023-02-11T06:09:12.225Z,0.18
2023-02-11T06:11:48.412Z,0.29
2023-02-11T06:14:20.085Z,0.44
2023-02-11T06:16:52.373Z,0.55
2023-02-11T06:19:21.598Z,0.25
2023-02-11T06:21:48.464Z,0.67
2023-02-11T06:24:28.696Z,0.25
2023-02-11T06:27:05.290Z,0.09
2023-02-11T06:29:35.467Z,0.44
2023-02-11T06:32:08.618Z,0.30
2023-02-11T06:34:38.829Z,0.59
2023-02-11T06:37:08.388Z,-0.17
2023-02-11T06:39:35.312Z,0.09
2023-02-11T06:42:06.985Z,0.23
2023-02-11T06:44:34.682Z,0.22
2023-02-11T06:47:04.273Z,0.77
2023-02-11T06:49:34.034Z,0.60
2023-02-11T06:52:00.987Z,0.69
2023-02-11T06:54:32.116Z,0.66
2023-02-11T06:56:58.845Z,0.58
2023-02-11T06:59:28.270Z,1.22
2023-02-11T07:01:58.186Z,0.51
2023-02-11T07:04:29.662Z,1.54
2023-02-11T07:06:59.501Z,1.12
2023-02-11T07:09:33.487Z,1.39
2023-02-11T07:12:02.574Z,1.59
2023-02-11T07:14:34.151Z,1.15
2023-02-11T07:17:04.128Z,1.39
2023-02-11T07:19:33.288Z,1.61
2023-02-11T07:22:02.185Z,1.91
2023-02-11T07:24:30.216Z,1.69
2023-02-11T07:26:57.111Z,1.40
2023-02-11T07:29:34.652Z,2.26
2023-02-11T07:32:03.827Z,2.57
2023-02-11T07:34:35.804Z,2.63
2023-02-11T07:37:07.089Z,2.63
2023-02-11T07:39:34.226Z,2.17
2023-02-11T07:42:00.985Z,2.41
2023-02-11T07:44:27.811Z,2.45
2023-02-11T07:46:58.609Z,1.24
2023-02-11T07:49:27.854Z,2.88
2023-02-11T07:51:59.731Z,2.86
2023-02-11T07:54:28.771Z,2.71
2023-02-11T07:56:55.580Z,2.68
2023-02-11T07:59:25.161Z,2.90
2023-02-11T08:01:55.022Z,3.63
2023-02-11T08:04:23.174Z,3.34
2023-02-11T08:06:52.920Z,3.19
2023-02-11T08:09:24.864Z,3.33
2023-02-11T08:11:56.645Z,3.38
2023-02-11T08:14:28.684Z,3.47
2023-02-11T08:17:01.082Z,3.86
2023-02-11T08:19:28.159Z,3.84
2023-02-11T08:21:58.571Z,3.92
2023-02-11T08:24:28.337Z,3.19
2023-02-11T08:26:56.737Z,3.28
2023-02-11T08:29:30.912Z,2.78
2023-02-11T08:31:57.984Z,2.93
2023-02-11T08:34:26.920Z,2.57
2023-02-11T08:36:54.221Z,2.50
2023-02-11T08:39:24.518Z,3.06
2023-02-11T08:41:54.104Z,3.41
2023-02-11T08:44:21.111Z,3.88
2023-02-11T08:46:48.362Z,3.35
2023-02-11T08:49:15.692Z,3.45
2023-02-11T08:51:45.897Z,4.00
2023-02-11T08:54:14.173Z,3.69
2023-02-11T08:56:47.608Z,3.60
2023-02-11T08:59:16.081Z,3.38
2023-02-11T09:01:47.847Z,3.90
2023-02-11T09:04:14.996Z,4.00
2023-02-11T09:06:42.184Z,4.14
2023-02-11T09:09:13.529Z,3.61
2023-02-11T09:11:41.540Z,4.04
2023-02-11T09:14:20.544Z,4.61
2023-02-11T09:16:48.324Z,4.58
2023-02-11T09:19:15.655Z,4.90
2023-02-11T09:21:45.476Z,4.81
2023-02-11T09:24:12.335Z,5.46
2023-02-11T09:26:43.395Z,5.33
2023-02-11T09:29:10.446Z,5.52
2023-02-11T09:31:37.591Z,4.79
2023-02-11T09:34:09.846Z,5.03
2023-02-11T09:36:43.842Z,5.51
2023-02-11T09:39:18.273Z,4.35
2023-02-11T09:41:48.104Z,5.69
2023-02-11T09:44:23.688Z,5.73
2023-02-11T09:47:01.196Z,5.46
2023-02-11T09:49:39.418Z,5.94
2023-02-11T09:52:22.655Z,6.42
2023-02-11T09:54:58.460Z,6.24
2023-02-11T09:57:36.836Z,6.19
2023-02-11T10:00:20.043Z,6.31
2023-02-11T10:02:46.749Z,6.63
2023-02-11T10:05:17.804Z,6.47
2023-02-11T10:07:44.757Z,7.50
2023-02-11T10:10:30.026Z,7.96
2023-02-11T10:13:21.897Z,8.25
2023-02-11T10:16:16.183Z,8.24
2023-02-11T10:19:03.129Z,8.51
2023-02-11T10:21:34.403Z,8.70
2023-02-11T10:24:05.745Z,7.80
2023-02-11T10:26:36.990Z,7.86
2023-02-11T10:29:25.262Z,8.77
2023-02-11T10:31:52.383Z,8.85
2023-02-11T10:34:19.369Z,8.84
2023-02-11T10:36:48.772Z,9.00
2023-02-11T10:39:16.984Z,9.01
2023-02-11T10:41:48.582Z,8.35
2023-02-11T10:44:31.017Z,8.97
2023-02-11T10:47:00.108Z,9.71
2023-02-11T10:49:40.465Z,10.14
2023-02-11T10:52:30.707Z,9.41
2023-02-11T10:55:29.135Z,8.40
2023-02-11T10:58:33.499Z,5.68
2023-02-11T11:01:03.750Z,10.44
2023-02-11T11:03:43.265Z,9.52
2023-02-11T11:06:10.191Z,8.88
2023-02-11T11:08:52.213Z,8.64
2023-02-11T11:11:29.619Z,7.49
2023-02-11T11:14:03.360Z,7.67
2023-02-11T11:16:37.058Z,8.14
2023-02-11T11:19:09.743Z,7.73
2023-02-11T11:21:42.522Z,7.60
2023-02-11T11:24:22.212Z,6.98
2023-02-11T11:26:56.993Z,6.46
2023-02-11T11:29:46.007Z,6.63
2023-02-11T11:32:18.911Z,6.51
2023-02-11T11:35:17.854Z,6.38
2023-02-11T11:37:47.103Z,7.27
2023-02-11T11:40:16.741Z,8.01
2023-02-11T11:42:47.258Z,8.23
2023-02-11T11:45:19.939Z,8.35
2023-02-11T11:47:53.316Z,7.97
2023-02-11T11:50:35.597Z,7.42
2023-02-11T11:53:26.508Z,7.55
2023-02-11T11:56:00.155Z,6.40
2023-02-11T11:58:32.852Z,7.74
2023-02-11T12:01:02.308Z,7.89
2023-02-11T12:03:34.441Z,8.07
2023-02-11T12:06:41.307Z,8.06
2023-02-11T12:09:32.463Z,8.15
2023-02-11T12:12:24.092Z,7.62
2023-02-11T12:15:12.174Z,8.63
2023-02-11T12:17:38.940Z,8.39
2023-02-11T12:20:18.338Z,8.15
2023-02-11T12:22:48.782Z,8.61
2023-02-11T12:25:38.876Z,8.12
2023-02-11T12:28:27.555Z,8.16
2023-02-11T12:31:12.078Z,7.60
2023-02-11T12:33:59.965Z,7.84
2023-02-11T12:37:07.995Z,7.92
2023-02-11T12:40:00.589Z,8.10
2023-02-11T12:42:52.036Z,7.98
2023-02-11T12:45:40.001Z,8.07
2023-02-11T12:48:35.629Z,8.63
2023-02-11T12:51:02.605Z,9.19
2023-02-11T12:53:32.825Z,8.94
2023-02-11T12:56:22.994Z,8.23
2023-02-11T12:58:53.136Z,8.27
2023-02-11T13:01:41.014Z,6.90
2023-02-11T13:04:22.072Z,8.99
2023-02-11T13:06:52.474Z,9.22
2023-02-11T13:09:33.150Z,9.44
2023-02-11T13:12:23.031Z,9.39
2023-02-11T13:14:52.944Z,9.06
2023-02-11T13:17:50.247Z,8.36
2023-02-11T13:20:25.903Z,7.77
2023-02-11T13:23:24.274Z,8.62
2023-02-11T13:25:57.479Z,8.34
2023-02-11T13:28:27.280Z,9.06
2023-02-11T13:31:03.235Z,8.27
2023-02-11T13:33:43.155Z,8.55
2023-02-11T13:36:09.949Z,9.00
2023-02-11T13:38:40.066Z,8.34
2023-02-11T13:41:35.804Z,8.35
2023-02-11T13:44:08.597Z,8.72
2023-02-11T13:46:54.928Z,7.52
2023-02-11T13:49:25.912Z,8.49
2023-02-11T13:52:00.484Z,7.76
2023-02-11T13:54:31.889Z,8.58
2023-02-11T13:57:19.677Z,8.51
2023-02-11T13:59:58.168Z,8.38
2023-02-11T14:02:49.497Z,8.38
2023-02-11T14:05:50.518Z,8.40
2023-02-11T14:08:45.662Z,7.70
2023-02-11T14:11:25.306Z,8.72
2023-02-11T14:13:55.018Z,9.65
2023-02-11T14:16:37.302Z,10.34
2023-02-11T14:19:06.787Z,10.13
2023-02-11T14:21:36.973Z,10.91
2023-02-11T14:24:07.424Z,11.34
2023-02-11T14:26:56.958Z,11.57
2023-02-11T14:29:34.210Z,9.81
2023-02-11T14:32:23.661Z,9.58
2023-02-11T14:35:25.954Z,9.38
2023-02-11T14:38:14.029Z,8.86
2023-02-11T14:40:42.403Z,9.09
2023-02-11T14:43:36.384Z,7.95
2023-02-11T14:46:03.940Z,8.81
2023-02-11T14:48:40.726Z,8.50
2023-02-11T14:51:10.186Z,8.07
2023-02-11T14:53:37.086Z,8.95
2023-02-11T14:56:04.091Z,9.03
2023-02-11T14:58:32.689Z,8.85
2023-02-11T15:01:23.121Z,8.42
2023-02-11T15:03:50.166Z,8.94
2023-02-11T15:06:45.037Z,8.93
2023-02-11T15:09:19.824Z,8.88
2023-02-11T15:11:49.792Z,8.39
2023-02-11T15:14:29.468Z,8.07
2023-02-11T15:17:01.701Z,8.25
2023-02-11T15:19:34.237Z,8.45
2023-02-11T15:22:08.532Z,7.89
2023-02-11T15:24:35.736Z,6.42
2023-02-11T15:27:08.650Z,7.98
2023-02-11T15:29:40.090Z,7.37
2023-02-11T15:32:10.044Z,7.74
2023-02-11T15:34:37.266Z,7.29
2023-02-11T15:37:09.335Z,7.26
2023-02-11T15:39:44.174Z,7.15
2023-02-11T15:42:24.299Z,7.64
2023-02-11T15:45:16.541Z,6.75
2023-02-11T15:47:54.314Z,7.61
2023-02-11T15:50:21.224Z,7.51
2023-02-11T15:52:50.485Z,6.69
2023-02-11T15:55:18.025Z,7.44
2023-02-11T15:57:54.061Z,7.62
2023-02-11T16:00:24.801Z,7.09
2023-02-11T16:02:52.068Z,7.74
2023-02-11T16:05:31.864Z,7.77
2023-02-11T16:08:24.570Z,6.71
2023-02-11T16:11:03.520Z,7.27
2023-02-11T16:13:38.436Z,7.22
2023-02-11T16:16:19.938Z,7.46
2023-02-11T16:19:04.380Z,7.43
2023-02-11T16:21:39.309Z,7.16
2023-02-11T16:24:15.850Z,6.76
2023-02-11T16:26:48.039Z,6.98
2023-02-11T16:29:24.775Z,5.89
2023-02-11T16:31:53.564Z,6.97
2023-02-11T16:34:24.556Z,6.90
2023-02-11T16:36:52.227Z,6.84
2023-02-11T16:39:22.684Z,6.02
2023-02-11T16:41:56.240Z,5.87
2023-02-11T16:44:25.571Z,5.89
2023-02-11T16:46:56.075Z,5.55
2023-02-11T16:49:25.840Z,6.00
2023-02-11T16:52:01.245Z,5.97
2023-02-11T16:54:29.257Z,6.35
2023-02-11T16:57:02.138Z,5.93
2023-02-11T16:59:28.971Z,5.90
2023-02-11T17:01:55.773Z,5.77
2023-02-11T17:04:27.814Z,5.84
2023-02-11T17:06:58.690Z,5.69
2023-02-11T17:09:30.484Z,6.32
2023-02-11T17:11:57.555Z,6.10
2023-02-11T17:14:26.592Z,6.40
2023-02-11T17:16:59.145Z,5.88
2023-02-11T17:19:30.794Z,6.08
2023-02-11T17:22:00.492Z,5.40
2023-02-11T17:24:29.565Z,6.39
2023-02-11T17:26:58.622Z,6.31
2023-02-11T17:29:27.908Z,6.35
2023-02-11T17:31:54.778Z,6.76
2023-02-11T17:34:22.708Z,6.02
2023-02-11T17:36:50.153Z,6.98
2023-02-11T17:39:22.065Z,6.51
2023-02-11T17:41:53.597Z,6.35
2023-02-11T17:44:25.017Z,7.04
2023-02-11T17:46:54.140Z,6.17
2023-02-11T17:49:21.032Z,7.08
2023-02-11T17:51:52.652Z,6.97
2023-02-11T17:54:19.830Z,7.21
2023-02-11T17:56:50.760Z,7.59
2023-02-11T17:59:20.480Z,6.99
2023-02-11T18:01:49.464Z,5.92
2023-02-11T18:04:17.994Z,7.34
2023-02-11T18:06:45.040Z,7.31
2023-02-11T18:09:14.780Z,6.63
2023-02-11T18:11:44.217Z,6.96
2023-02-11T18:14:10.838Z,7.52
2023-02-11T18:16:39.469Z,7.55
2023-02-11T18:19:08.898Z,6.97
2023-02-11T18:21:35.996Z,7.45
2023-02-11T18:24:06.972Z,7.42
2023-02-11T18:26:34.660Z,7.49
2023-02-11T18:29:01.780Z,6.90
2023-02-11T18:31:36.116Z,6.55
2023-02-11T18:34:04.686Z,7.07
2023-02-11T18:36:31.602Z,7.28
2023-02-11T18:39:00.127Z,6.83
2023-02-11T18:41:29.860Z,7.55
2023-02-11T18:43:58.836Z,7.00
2023-02-11T18:46:26.116Z,6.75
2023-02-11T18:48:56.265Z,6.93
2023-02-11T18:51:25.999Z,6.65
2023-02-11T18:53:53.095Z,7.59
2023-02-11T18:56:24.094Z,7.62
2023-02-11T18:58:56.669Z,6.93
2023-02-11T19:01:27.361Z,7.74
2023-02-11T19:03:58.524Z,7.22
2023-02-11T19:06:27.382Z,7.89
2023-02-11T19:09:00.124Z,7.44
2023-02-11T19:11:47.105Z,7.68
2023-02-11T19:14:15.438Z,6.62
2023-02-11T19:16:43.968Z,6.41
2023-02-11T19:19:14.032Z,7.34
2023-02-11T19:21:43.748Z,7.27
2023-02-11T19:24:11.381Z,7.29
2023-02-11T19:26:40.423Z,7.31
2023-02-11T19:29:09.850Z,7.52
2023-02-11T19:31:36.610Z,7.58
2023-02-11T19:34:07.487Z,6.78
2023-02-11T19:36:36.880Z,6.73
2023-02-11T19:39:05.478Z,7.61
2023-02-11T19:41:34.069Z,6.78
2023-02-11T19:44:01.575Z,7.25
2023-02-11T19:46:33.644Z,6.77
2023-02-11T19:49:03.726Z,6.87
2023-02-11T19:51:31.144Z,7.72
2023-02-11T19:54:00.848Z,7.66
2023-02-11T19:56:29.924Z,7.17
2023-02-11T19:58:57.124Z,6.83
2023-02-11T20:01:28.739Z,7.02
2023-02-11T20:03:58.015Z,7.34
2023-02-11T20:06:28.572Z,7.24
2023-02-11T20:08:58.825Z,6.98
2023-02-11T20:11:28.216Z,7.40
2023-02-11T20:13:55.347Z,7.11
2023-02-11T20:16:44.688Z,7.43
2023-02-11T20:19:20.461Z,7.40
2023-02-11T20:21:51.062Z,7.23
2023-02-11T20:24:19.210Z,7.28
2023-02-11T20:26:49.408Z,6.83
2023-02-11T20:29:17.462Z,7.11
2023-02-11T20:31:44.461Z,6.19
2023-02-11T20:34:12.287Z,6.42
2023-02-11T20:36:51.838Z,6.50
2023-02-11T20:39:22.360Z,6.42
2023-02-11T20:41:50.048Z,6.73
2023-02-11T20:44:21.844Z,6.66
2023-02-11T20:46:49.313Z,6.12
2023-02-11T20:49:22.061Z,6.01
2023-02-11T20:51:53.329Z,6.57
2023-02-11T20:54:21.537Z,6.95
2023-02-11T20:56:51.223Z,6.44
2023-02-11T20:59:19.260Z,6.10
2023-02-11T21:01:48.711Z,6.35
2023-02-11T21:04:16.803Z,6.92
2023-02-11T21:06:48.199Z,6.91
2023-02-11T21:09:20.112Z,6.74
2023-02-11T21:11:47.604Z,6.89
2023-02-11T21:14:15.474Z,6.94
2023-02-11T21:16:44.365Z,6.48
2023-02-11T21:19:11.361Z,6.59
2023-02-11T21:21:39.093Z,6.81
2023-02-11T21:24:07.728Z,6.95
2023-02-11T21:26:35.720Z,6.05
2023-02-11T21:29:08.060Z,6.89
2023-02-11T21:31:36.173Z,6.97
2023-02-11T21:34:03.830Z,7.07
2023-02-11T21:36:30.836Z,6.62
2023-02-11T21:39:01.748Z,6.17
2023-02-11T21:41:28.851Z,6.31
2023-02-11T21:43:57.798Z,6.39
2023-02-11T21:46:27.401Z,6.57
2023-02-11T21:49:00.458Z,7.22
2023-02-11T21:51:27.612Z,6.74
2023-02-11T21:54:01.156Z,7.26
2023-02-11T21:56:32.515Z,7.23
2023-02-11T21:58:59.875Z,6.06
2023-02-11T22:01:29.308Z,6.81
2023-02-11T22:03:56.785Z,6.28
2023-02-11T22:06:26.373Z,6.16
2023-02-11T22:08:54.356Z,6.54
2023-02-11T22:11:21.304Z,5.93
2023-02-11T22:13:48.144Z,6.17
2023-02-11T22:16:19.678Z,6.36
2023-02-11T22:18:46.605Z,6.40
2023-02-11T22:21:19.696Z,6.19
2023-02-11T22:23:49.529Z,5.24
2023-02-11T22:26:19.093Z,5.89
2023-02-11T22:28:49.999Z,6.01
2023-02-11T22:31:23.059Z,6.03
2023-02-11T22:33:52.571Z,5.31
2023-02-11T22:36:26.116Z,5.94
2023-02-11T22:38:55.754Z,5.16
2023-02-11T22:41:25.783Z,5.83
2023-02-11T22:43:54.701Z,5.46
2023-02-11T22:46:21.880Z,4.92
2023-02-11T22:48:49.118Z,4.54
2023-02-11T22:51:19.523Z,5.68
2023-02-11T22:53:59.805Z,4.85
2023-02-11T22:56:27.872Z,5.31
2023-02-11T22:59:00.377Z,5.35
2023-02-11T23:01:33.048Z,4.94
2023-02-11T23:04:04.540Z,5.12
2023-02-11T23:06:31.617Z,4.85
2023-02-11T23:08:58.441Z,4.87
2023-02-11T23:11:28.142Z,4.99
2023-02-11T23:13:55.413Z,4.63
2023-02-11T23:16:32.987Z,5.61
2023-02-11T23:19:03.532Z,5.55
2023-02-11T23:21:36.047Z,4.65
2023-02-11T23:24:08.953Z,5.49
2023-02-11T23:26:43.911Z,5.22
2023-02-11T23:29:14.007Z,5.45
2023-02-11T23:31:44.134Z,5.39
2023-02-11T23:34:11.773Z,5.35
2023-02-11T23:36:39.042Z,4.88
2023-02-11T23:39:13.562Z,5.43
2023-02-11T23:41:42.512Z,5.09
2023-02-11T23:44:12.127Z,5.03
2023-02-11T23:46:42.113Z,5.15
2023-02-11T23:49:08.997Z,4.75
2023-02-11T23:51:35.765Z,4.76
2023-02-11T23:54:03.329Z,4.71
2023-02-11T23:56:30.623Z,4.86
2023-02-11T23:58:59.392Z,4.90
